createdAt,value
2023-01-21T00:01:12.862Z,99285.34
2023-01-21T00:03:41.099Z,99300.03
2023-01-21T00:06:08.823Z,99299.53
2023-01-21T00:08:36.364Z,99285.06
2023-01-21T00:11:08.409Z,99285.88
2023-01-21T00:13:36.532Z,99289.22
2023-01-21T00:16:05.299Z,99288.06
2023-01-21T00:18:33.957Z,99289.78
2023-01-21T00:21:01.718Z,99301.63
2023-01-21T00:23:29.544Z,99310.72
2023-01-21T00:26:01.723Z,99311.41
2023-01-21T00:28:30.364Z,99320.94
2023-01-21T00:31:02.796Z,99312.56
2023-01-21T00:33:31.344Z,99316.78
2023-01-21T00:35:59.502Z,99313.72
2023-01-21T00:38:27.525Z,99308.00
2023-01-21T00:41:09.890Z,99310.25
2023-01-21T00:43:37.964Z,99306.97
2023-01-21T00:46:06.306Z,99298.88
2023-01-21T00:48:34.454Z,99307.25
2023-01-21T00:51:02.083Z,99306.97
2023-01-21T00:53:32.208Z,99304.75
2023-01-21T00:56:01.225Z,99302.13
2023-01-21T00:58:29.272Z,99292.44
2023-01-21T01:01:05.618Z,99291.97
2023-01-21T01:03:33.763Z,99289.25
2023-01-21T01:06:10.516Z,99296.06
2023-01-21T01:08:38.336Z,99293.91
2023-01-21T01:11:06.169Z,99298.25
2023-01-21T01:13:35.635Z,99302.63
2023-01-21T01:16:03.343Z,99310.31
2023-01-21T01:18:33.702Z,99303.88
2023-01-21T01:21:01.779Z,99318.44
2023-01-21T01:23:29.877Z,99305.41
2023-01-21T01:26:01.691Z,99306.66
2023-01-21T01:28:30.573Z,99305.94
2023-01-21T01:30:59.014Z,99312.69
2023-01-21T01:33:27.282Z,99303.75
2023-01-21T01:35:54.861Z,99305.06
2023-01-21T01:38:23.302Z,99301.34
2023-01-21T01:40:53.221Z,99295.00
2023-01-21T01:43:55.164Z,99303.34
2023-01-21T01:46:24.122Z,99293.88
2023-01-21T01:48:59.540Z,99295.50
2023-01-21T01:51:33.593Z,99300.09
2023-01-21T01:54:01.154Z,99297.38
2023-01-21T01:56:29.363Z,99302.53
2023-01-21T01:58:57.538Z,99293.16
2023-01-21T02:01:25.178Z,99293.97
2023-01-21T02:03:59.483Z,99288.31
2023-01-21T02:06:27.830Z,99290.59
2023-01-21T02:08:56.091Z,99285.13
2023-01-21T02:11:23.645Z,99293.97
2023-01-21T02:13:53.715Z,99285.56
2023-01-21T02:16:43.058Z,99282.34
2023-01-21T02:19:13.903Z,99285.31
2023-01-21T02:22:13.775Z,99298.38
2023-01-21T02:25:03.380Z,99292.69
2023-01-21T02:27:40.249Z,99289.16
2023-01-21T02:30:33.440Z,99286.06
2023-01-21T02:33:22.690Z,99285.72
2023-01-21T02:36:23.803Z,99293.53
2023-01-21T02:39:29.572Z,99299.84
2023-01-21T02:42:42.823Z,99297.19
2023-01-21T02:45:24.564Z,99294.41
2023-01-21T02:48:21.006Z,99309.28
2023-01-21T02:50:50.527Z,99296.66
2023-01-21T02:53:25.740Z,99295.03
2023-01-21T02:55:53.742Z,99294.16
2023-01-21T02:58:25.366Z,99283.06
2023-01-21T03:01:12.122Z,99282.59
2023-01-21T03:03:59.870Z,99282.94
2023-01-21T03:06:37.697Z,99270.13
2023-01-21T03:09:18.878Z,99270.03
2023-01-21T03:11:57.124Z,99261.91
2023-01-21T03:15:08.407Z,99274.63
2023-01-21T03:17:44.954Z,99277.66
2023-01-21T03:20:21.558Z,99292.03
2023-01-21T03:22:53.494Z,99290.44
2023-01-21T03:25:21.194Z,99293.91
2023-01-21T03:27:49.905Z,99297.47
2023-01-21T03:30:21.449Z,99295.66
2023-01-21T03:32:51.140Z,99285.94
2023-01-21T03:35:40.543Z,99296.41
2023-01-21T03:38:40.686Z,99292.44
2023-01-21T03:41:14.572Z,99308.34
2023-01-21T03:43:42.337Z,99307.97
2023-01-21T03:46:22.024Z,99318.66
2023-01-21T03:48:58.096Z,99319.06
2023-01-21T03:51:38.246Z,99330.56
2023-01-21T03:54:06.569Z,99320.34
2023-01-21T03:56:34.272Z,99325.41
2023-01-21T03:59:01.959Z,99327.72
2023-01-21T04:01:29.777Z,99332.28
2023-01-21T04:03:57.776Z,99329.75
2023-01-21T04:06:25.101Z,99338.78
2023-01-21T04:08:52.649Z,99345.44
2023-01-21T04:11:20.582Z,99355.16
2023-01-21T04:13:48.274Z,99360.25
2023-01-21T04:16:15.673Z,99362.91
2023-01-21T04:18:43.496Z,99365.53
2023-01-21T04:21:11.148Z,99351.91
2023-01-21T04:23:38.612Z,99353.37
2023-01-21T04:26:07.607Z,99363.91
2023-01-21T04:28:35.513Z,99362.06
2023-01-21T04:31:03.410Z,99353.09
2023-01-21T04:33:31.145Z,99359.56
2023-01-21T04:36:00.054Z,99357.25
2023-01-21T04:38:27.768Z,99371.41
2023-01-21T04:40:55.633Z,99372.25
2023-01-21T04:43:23.126Z,99384.78
2023-01-21T04:45:50.556Z,99393.56
2023-01-21T04:48:18.418Z,99390.63
2023-01-21T04:50:47.012Z,99398.84
2023-01-21T04:53:14.635Z,99392.41
2023-01-21T04:55:42.333Z,99393.00
2023-01-21T04:58:10.408Z,99388.22
2023-01-21T05:00:37.861Z,99394.19
2023-01-21T05:03:06.061Z,99397.22
2023-01-21T05:05:33.600Z,99399.00
2023-01-21T05:08:00.988Z,99404.03
2023-01-21T05:10:29.125Z,99404.78
2023-01-21T05:12:56.715Z,99409.38
2023-01-21T05:15:24.447Z,99401.00
2023-01-21T05:17:52.270Z,99400.50
2023-01-21T05:20:19.917Z,99411.31
2023-01-21T05:22:48.864Z,99411.06
2023-01-21T05:25:16.794Z,99410.19
2023-01-21T05:27:44.301Z,99416.28
2023-01-21T05:30:13.023Z,99423.16
2023-01-21T05:32:40.951Z,99420.50
2023-01-21T05:35:08.947Z,99430.78
2023-01-21T05:37:36.771Z,99427.47
2023-01-21T05:40:05.459Z,99418.34
2023-01-21T05:42:33.335Z,99413.22
2023-01-21T05:45:01.534Z,99429.94
2023-01-21T05:47:29.414Z,99434.06
2023-01-21T05:49:56.910Z,99439.31
2023-01-21T05:52:24.432Z,99434.47
2023-01-21T05:55:01.395Z,99429.16
2023-01-21T05:57:30.846Z,99431.63
2023-01-21T05:59:59.080Z,99439.13
2023-01-21T06:02:26.727Z,99441.62
2023-01-21T06:04:54.878Z,99446.69
2023-01-21T06:07:22.524Z,99457.09
2023-01-21T06:09:51.022Z,99460.56
2023-01-21T06:12:18.843Z,99464.12
2023-01-21T06:14:46.234Z,99458.91
2023-01-21T06:17:13.806Z,99458.81
2023-01-21T06:19:41.691Z,99466.69
2023-01-21T06:22:14.916Z,99454.31
2023-01-21T06:24:42.695Z,99461.41
2023-01-21T06:27:11.007Z,99469.69
2023-01-21T06:29:38.418Z,99479.84
2023-01-21T06:32:06.604Z,99486.31
2023-01-21T06:34:34.239Z,99494.03
2023-01-21T06:37:01.832Z,99494.97
2023-01-21T06:39:29.866Z,99494.22
2023-01-21T06:41:57.235Z,99500.06
2023-01-21T06:44:24.905Z,99495.00
2023-01-21T06:47:00.750Z,99497.47
2023-01-21T06:49:29.027Z,99498.00
2023-01-21T06:51:56.830Z,99500.03
2023-01-21T06:54:24.371Z,99495.12
2023-01-21T06:56:51.880Z,99496.88
2023-01-21T06:59:19.708Z,99501.66
2023-01-21T07:01:47.430Z,99502.88
2023-01-21T07:04:15.294Z,99499.78
2023-01-21T07:06:43.029Z,99500.75
2023-01-21T07:09:11.311Z,99508.47
2023-01-21T07:11:38.853Z,99506.00
2023-01-21T07:14:06.506Z,99509.69
2023-01-21T07:16:33.926Z,99520.34
2023-01-21T07:19:01.339Z,99518.78
2023-01-21T07:21:29.235Z,99527.53
2023-01-21T07:23:56.833Z,99537.75
2023-01-21T07:26:24.285Z,99550.41
2023-01-21T07:28:52.262Z,99552.22
2023-01-21T07:31:19.862Z,99559.47
2023-01-21T07:33:47.490Z,99558.97
2023-01-21T07:36:15.211Z,99574.87
2023-01-21T07:38:42.839Z,99581.37
2023-01-21T07:41:10.324Z,99572.06
2023-01-21T07:43:38.200Z,99574.47
2023-01-21T07:46:05.818Z,99574.47
2023-01-21T07:48:33.406Z,99582.22
2023-01-21T07:51:01.145Z,99577.94
2023-01-21T07:53:28.535Z,99577.59
2023-01-21T07:55:56.089Z,99581.37
2023-01-21T07:58:25.005Z,99591.09
2023-01-21T08:00:53.667Z,99592.56
2023-01-21T08:03:23.464Z,99591.34
2023-01-21T08:05:52.202Z,99594.84
2023-01-21T08:08:19.719Z,99594.94
2023-01-21T08:10:56.814Z,99594.16
2023-01-21T08:13:24.679Z,99597.63
2023-01-21T08:15:54.169Z,99596.66
2023-01-21T08:18:23.179Z,99600.38
2023-01-21T08:20:54.834Z,99602.97
2023-01-21T08:23:22.869Z,99598.56
2023-01-21T08:25:50.256Z,99606.22
2023-01-21T08:28:17.923Z,99600.03
2023-01-21T08:30:45.832Z,99605.37
2023-01-21T08:33:13.655Z,99600.00
2023-01-21T08:35:41.329Z,99598.31
2023-01-21T08:38:09.289Z,99614.16
2023-01-21T08:40:36.811Z,99623.22
2023-01-21T08:43:05.032Z,99619.06
2023-01-21T08:45:33.022Z,99624.88
2023-01-21T08:48:03.930Z,99620.56
2023-01-21T08:50:31.417Z,99621.56
2023-01-21T08:52:59.155Z,99619.69
2023-01-21T08:55:27.009Z,99626.50
2023-01-21T08:57:55.778Z,99617.38
2023-01-21T09:00:24.187Z,99617.88
2023-01-21T09:02:51.996Z,99625.47
2023-01-21T09:05:20.236Z,99628.09
2023-01-21T09:07:47.980Z,99632.44
2023-01-21T09:10:35.771Z,99621.84
2023-01-21T09:13:07.885Z,99628.53
2023-01-21T09:15:39.775Z,99630.19
2023-01-21T09:18:07.579Z,99626.03
2023-01-21T09:20:35.891Z,99629.28
2023-01-21T09:23:23.979Z,99622.13
2023-01-21T09:25:53.163Z,99623.91
2023-01-21T09:28:21.716Z,99625.28
2023-01-21T09:30:49.347Z,99628.75
2023-01-21T09:33:17.172Z,99629.88
2023-01-21T09:35:44.782Z,99636.94
2023-01-21T09:38:13.138Z,99636.09
2023-01-21T09:40:45.163Z,99632.34
2023-01-21T09:43:19.051Z,99637.72
2023-01-21T09:45:48.037Z,99635.41
2023-01-21T09:48:23.139Z,99623.62
2023-01-21T09:50:51.203Z,99627.31
2023-01-21T09:53:27.745Z,99624.69
2023-01-21T09:55:58.644Z,99616.91
2023-01-21T09:58:32.189Z,99625.75
2023-01-21T10:01:15.896Z,99623.97
2023-01-21T10:04:00.273Z,99626.03
2023-01-21T10:06:45.307Z,99632.28
2023-01-21T10:09:45.679Z,99620.63
2023-01-21T10:12:25.201Z,99626.72
2023-01-21T10:15:27.991Z,99625.75
2023-01-21T10:17:59.689Z,99628.09
2023-01-21T10:20:35.142Z,99628.50
2023-01-21T10:23:18.562Z,99631.12
2023-01-21T10:25:49.036Z,99640.03
2023-01-21T10:28:25.450Z,99632.81
2023-01-21T10:30:55.264Z,99635.91
2023-01-21T10:33:25.471Z,99639.69
2023-01-21T10:36:15.704Z,99634.78
2023-01-21T10:39:24.151Z,99642.72
2023-01-21T10:42:16.450Z,99640.28
2023-01-21T10:44:49.857Z,99637.06
2023-01-21T10:47:29.847Z,99645.75
2023-01-21T10:50:11.206Z,99650.72
2023-01-21T10:52:56.761Z,99653.56
2023-01-21T10:55:53.406Z,99652.53
2023-01-21T10:58:39.433Z,99637.47
2023-01-21T11:01:16.622Z,99637.34
2023-01-21T11:03:48.120Z,99639.53
2023-01-21T11:06:17.250Z,99642.31
2023-01-21T11:08:48.764Z,99632.56
2023-01-21T11:11:21.162Z,99631.69
2023-01-21T11:13:48.976Z,99631.25
2023-01-21T11:16:36.445Z,99638.69
2023-01-21T11:19:07.822Z,99626.59
2023-01-21T11:21:35.457Z,99636.72
2023-01-21T11:24:05.136Z,99628.34
2023-01-21T11:26:35.356Z,99630.66
2023-01-21T11:29:15.910Z,99628.75
2023-01-21T11:31:45.701Z,99623.66
2023-01-21T11:34:15.147Z,99623.59
2023-01-21T11:37:11.580Z,99629.75
2023-01-21T11:39:45.131Z,99617.28
2023-01-21T11:42:17.670Z,99618.06
2023-01-21T11:45:01.740Z,99621.88
2023-01-21T11:47:46.893Z,99616.50
2023-01-21T11:50:22.957Z,99616.91
2023-01-21T11:53:11.413Z,99613.06
2023-01-21T11:55:46.362Z,99613.47
2023-01-21T11:58:24.058Z,99617.12
2023-01-21T12:00:54.926Z,99621.25
2023-01-21T12:03:26.079Z,99626.34
2023-01-21T12:05:54.193Z,99630.25
2023-01-21T12:08:31.681Z,99623.38
2023-01-21T12:11:04.288Z,99629.94
2023-01-21T12:13:51.040Z,99632.03
2023-01-21T12:16:27.321Z,99624.38
2023-01-21T12:19:06.975Z,99622.94
2023-01-21T12:22:08.591Z,99631.03
2023-01-21T12:24:56.218Z,99635.06
2023-01-21T12:27:35.708Z,99638.19
2023-01-21T12:30:09.820Z,99650.25
2023-01-21T12:32:43.137Z,99646.25
2023-01-21T12:35:18.263Z,99644.75
2023-01-21T12:38:11.516Z,99658.87
2023-01-21T12:41:06.006Z,99655.84
2023-01-21T12:43:56.006Z,99661.84
2023-01-21T12:46:27.536Z,99668.34
2023-01-21T12:49:07.421Z,99674.34
2023-01-21T12:51:39.718Z,99672.06
2023-01-21T12:54:24.645Z,99660.88
2023-01-21T12:57:05.392Z,99667.88
2023-01-21T12:59:47.134Z,99672.19
2023-01-21T13:02:26.907Z,99673.69
2023-01-21T13:05:17.940Z,99674.66
2023-01-21T13:08:22.565Z,99679.66
2023-01-21T13:10:56.264Z,99682.63
2023-01-21T13:13:28.925Z,99686.56
2023-01-21T13:16:01.261Z,99684.62
2023-01-21T13:18:43.464Z,99691.50
2023-01-21T13:21:28.225Z,99695.03
2023-01-21T13:23:57.221Z,99694.75
2023-01-21T13:26:33.210Z,99693.84
2023-01-21T13:29:14.040Z,99702.28
2023-01-21T13:31:53.386Z,99698.28
2023-01-21T13:34:50.389Z,99701.09
2023-01-21T13:37:33.829Z,99700.47
2023-01-21T13:40:39.656Z,99700.84
2023-01-21T13:43:54.889Z,99706.13
2023-01-21T13:46:44.206Z,99709.69
2023-01-21T13:49:40.655Z,99716.03
2023-01-21T13:52:18.260Z,99720.59
2023-01-21T13:54:58.136Z,99720.50
2023-01-21T13:57:31.612Z,99724.25
2023-01-21T14:00:16.294Z,99724.72
2023-01-21T14:03:24.466Z,99727.78
2023-01-21T14:06:07.584Z,99736.56
2023-01-21T14:08:45.737Z,99746.16
2023-01-21T14:11:23.018Z,99744.47
2023-01-21T14:14:01.195Z,99740.94
2023-01-21T14:16:40.563Z,99737.16
2023-01-21T14:19:21.466Z,99734.69
2023-01-21T14:21:56.876Z,99749.19
2023-01-21T14:24:33.804Z,99749.72
2023-01-21T14:27:07.448Z,99743.16
2023-01-21T14:29:47.693Z,99758.63
2023-01-21T14:32:24.388Z,99757.63
2023-01-21T14:35:24.552Z,99754.72
2023-01-21T14:38:13.156Z,99758.31
2023-01-21T14:40:48.038Z,99762.56
2023-01-21T14:43:30.909Z,99762.56
2023-01-21T14:46:00.494Z,99755.97
2023-01-21T14:48:38.675Z,99763.63
2023-01-21T14:51:06.366Z,99769.75
2023-01-21T14:53:51.848Z,99757.47
2023-01-21T14:56:23.551Z,99764.97
2023-01-21T14:59:01.425Z,99767.09
2023-01-21T15:01:31.464Z,99768.53
2023-01-21T15:04:02.669Z,99766.78
2023-01-21T15:06:31.414Z,99771.91
2023-01-21T15:09:00.241Z,99773.50
2023-01-21T15:11:30.470Z,99768.59
2023-01-21T15:14:12.515Z,99779.84
2023-01-21T15:16:42.466Z,99775.28
2023-01-21T15:19:11.119Z,99787.94
2023-01-21T15:21:42.212Z,99789.13
2023-01-21T15:24:19.642Z,99789.19
2023-01-21T15:27:12.890Z,99796.28
2023-01-21T15:29:44.803Z,99806.03
2023-01-21T15:32:17.836Z,99790.09
2023-01-21T15:34:47.939Z,99797.19
2023-01-21T15:37:21.678Z,99796.88
2023-01-21T15:39:52.731Z,99792.50
2023-01-21T15:42:29.863Z,99800.56
2023-01-21T15:45:13.885Z,99807.28
2023-01-21T15:48:15.559Z,99803.50
2023-01-21T15:51:05.041Z,99804.66
2023-01-21T15:54:15.534Z,99800.16
2023-01-21T15:57:01.657Z,99804.72
2023-01-21T16:00:00.054Z,99812.53
2023-01-21T16:02:43.020Z,99819.88
2023-01-21T16:05:33.615Z,99824.72
2023-01-21T16:08:25.162Z,99822.00
2023-01-21T16:10:58.940Z,99827.31
2023-01-21T16:13:33.566Z,99837.75
2023-01-21T16:16:17.810Z,99831.06
2023-01-21T16:18:55.974Z,99830.81
2023-01-21T16:21:28.757Z,99833.22
2023-01-21T16:23:58.055Z,99842.44
2023-01-21T16:26:32.682Z,99841.22
2023-01-21T16:29:00.431Z,99836.47
2023-01-21T16:31:28.278Z,99845.66
2023-01-21T16:33:55.704Z,99845.00
2023-01-21T16:36:23.224Z,99846.22
2023-01-21T16:38:51.065Z,99844.34
2023-01-21T16:41:25.467Z,99852.78
2023-01-21T16:43:53.133Z,99855.28
2023-01-21T16:46:32.799Z,99858.06
2023-01-21T16:49:01.733Z,99859.97
2023-01-21T16:51:32.767Z,99852.88
2023-01-21T16:54:19.431Z,99853.53
2023-01-21T16:56:58.018Z,99860.75
2023-01-21T16:59:29.149Z,99861.94
2023-01-21T17:01:58.335Z,99859.50
2023-01-21T17:04:26.341Z,99869.06
2023-01-21T17:06:54.278Z,99865.22
2023-01-21T17:09:34.197Z,99871.63
2023-01-21T17:12:07.070Z,99869.34
2023-01-21T17:14:35.362Z,99861.88
2023-01-21T17:17:06.359Z,99876.44
2023-01-21T17:19:37.935Z,99866.91
2023-01-21T17:22:15.328Z,99868.94
2023-01-21T17:24:58.840Z,99872.22
2023-01-21T17:27:27.163Z,99874.84
2023-01-21T17:30:32.809Z,99872.66
2023-01-21T17:33:02.448Z,99871.47
2023-01-21T17:35:31.742Z,99871.81
2023-01-21T17:38:01.355Z,99877.22
2023-01-21T17:40:36.368Z,99884.19
2023-01-21T17:43:24.776Z,99877.63
2023-01-21T17:45:55.477Z,99881.78
2023-01-21T17:48:32.253Z,99876.72
2023-01-21T17:51:14.931Z,99886.53
2023-01-21T17:53:56.140Z,99897.75
2023-01-21T17:56:57.269Z,99894.72
2023-01-21T17:59:38.296Z,99893.59
2023-01-21T18:02:17.559Z,99901.63
2023-01-21T18:04:45.669Z,99891.12
2023-01-21T18:07:23.922Z,99897.41
2023-01-21T18:09:52.916Z,99900.38
2023-01-21T18:12:21.228Z,99904.13
2023-01-21T18:14:48.988Z,99915.78
2023-01-21T18:17:24.099Z,99923.31
2023-01-21T18:19:51.768Z,99926.75
2023-01-21T18:22:22.311Z,99927.84
2023-01-21T18:24:49.798Z,99928.38
2023-01-21T18:27:17.728Z,99932.72
2023-01-21T18:29:45.635Z,99941.59
2023-01-21T18:32:16.748Z,99937.63
2023-01-21T18:34:44.997Z,99949.88
2023-01-21T18:37:14.947Z,99944.97
2023-01-21T18:39:42.563Z,99935.50
2023-01-21T18:42:12.815Z,99937.00
2023-01-21T18:44:41.194Z,99934.31
2023-01-21T18:47:13.801Z,99922.59
2023-01-21T18:49:45.974Z,99928.78
2023-01-21T18:52:16.096Z,99927.63
2023-01-21T18:54:43.981Z,99928.97
2023-01-21T18:57:15.216Z,99933.22
2023-01-21T18:59:42.803Z,99940.78
2023-01-21T19:02:20.091Z,99938.28
2023-01-21T19:04:47.962Z,99951.12
2023-01-21T19:07:23.642Z,99951.12
2023-01-21T19:09:51.331Z,99955.34
2023-01-21T19:12:24.351Z,99952.78
2023-01-21T19:14:52.359Z,99954.59
2023-01-21T19:17:27.736Z,99966.53
2023-01-21T19:19:56.915Z,99971.28
2023-01-21T19:22:27.614Z,99966.38
2023-01-21T19:24:55.332Z,99976.13
2023-01-21T19:27:31.006Z,99980.22
2023-01-21T19:29:58.751Z,99977.28
2023-01-21T19:32:26.439Z,99981.78
2023-01-21T19:34:57.869Z,99980.06
2023-01-21T19:37:25.660Z,99988.16
2023-01-21T19:39:53.206Z,99991.81
2023-01-21T19:42:22.851Z,99982.97
2023-01-21T19:44:50.722Z,99995.53
2023-01-21T19:47:28.494Z,99986.44
2023-01-21T19:49:56.434Z,99979.59
2023-01-21T19:52:23.869Z,99983.91
2023-01-21T19:54:53.995Z,99984.09
2023-01-21T19:57:25.634Z,99978.00
2023-01-21T19:59:56.380Z,99974.12
2023-01-21T20:02:24.200Z,99971.25
2023-01-21T20:04:52.694Z,99969.19
2023-01-21T20:07:22.149Z,99967.00
2023-01-21T20:09:50.134Z,99970.37
2023-01-21T20:12:17.981Z,99972.56
2023-01-21T20:14:45.401Z,99980.81
2023-01-21T20:17:14.275Z,99974.50
2023-01-21T20:19:42.336Z,99973.53
2023-01-21T20:22:10.805Z,99979.75
2023-01-21T20:24:38.203Z,99977.63
2023-01-21T20:27:08.590Z,99971.03
2023-01-21T20:29:44.484Z,99975.31
2023-01-21T20:32:12.303Z,99982.19
2023-01-21T20:34:40.120Z,99988.09
2023-01-21T20:37:10.488Z,99988.97
2023-01-21T20:39:38.309Z,99990.25
2023-01-21T20:42:05.849Z,99995.50
2023-01-21T20:44:33.797Z,99998.19
2023-01-21T20:47:03.396Z,99995.50
2023-01-21T20:49:30.996Z,99990.16
2023-01-21T20:51:58.430Z,99997.53
2023-01-21T20:54:26.727Z,99991.97
2023-01-21T20:56:54.286Z,99999.50
2023-01-21T20:59:21.887Z,99993.50
2023-01-21T21:01:51.566Z,99997.16
2023-01-21T21:04:18.998Z,99998.16
2023-01-21T21:06:46.389Z,99992.66
2023-01-21T21:09:14.530Z,99995.97
2023-01-21T21:11:42.011Z,99985.81
2023-01-21T21:14:09.545Z,99997.25
2023-01-21T21:16:37.337Z,99994.37
2023-01-21T21:19:05.108Z,99997.25
2023-01-21T21:21:32.620Z,99996.41
2023-01-21T21:24:00.397Z,99993.50
2023-01-21T21:26:29.456Z,99993.50
2023-01-21T21:29:00.029Z,99999.34
2023-01-21T21:31:31.954Z,100010.75
2023-01-21T21:33:59.779Z,100006.50
2023-01-21T21:36:27.233Z,100001.00
2023-01-21T21:38:56.042Z,99997.28
2023-01-21T21:41:44.133Z,99999.59
2023-01-21T21:44:12.255Z,100008.59
2023-01-21T21:46:59.263Z,100004.16
2023-01-21T21:49:28.122Z,100005.66
2023-01-21T21:51:56.885Z,100013.47
2023-01-21T21:54:24.312Z,100017.25
2023-01-21T21:56:52.162Z,100014.88
2023-01-21T21:59:19.974Z,100027.13
2023-01-21T22:01:47.380Z,100025.16
2023-01-21T22:04:15.920Z,100022.25
2023-01-21T22:06:43.592Z,100022.78
2023-01-21T22:09:11.072Z,100022.06
2023-01-21T22:11:38.883Z,100019.78
2023-01-21T22:14:06.293Z,100012.44
2023-01-21T22:16:33.833Z,100008.16
2023-01-21T22:19:01.892Z,100009.59
2023-01-21T22:21:35.535Z,100008.72
2023-01-21T22:24:06.795Z,99998.66
2023-01-21T22:26:35.813Z,99995.56
2023-01-21T22:29:05.452Z,99994.09
2023-01-21T22:31:33.577Z,99997.03
2023-01-21T22:34:01.519Z,99997.56
2023-01-21T22:36:30.587Z,99993.84
2023-01-21T22:38:58.654Z,99992.34
2023-01-21T22:41:26.742Z,99992.59
2023-01-21T22:43:54.867Z,99998.91
2023-01-21T22:46:24.897Z,100004.34
2023-01-21T22:48:54.043Z,100002.47
2023-01-21T22:51:22.997Z,99991.34
2023-01-21T22:53:51.747Z,99997.44
2023-01-21T22:56:39.907Z,99993.44
2023-01-21T22:59:11.946Z,99987.09
2023-01-21T23:01:39.481Z,99983.00
2023-01-21T23:04:07.037Z,99983.94
2023-01-21T23:06:37.670Z,99985.47
2023-01-21T23:09:08.080Z,99991.06
2023-01-21T23:11:39.080Z,100006.19
2023-01-21T23:14:08.821Z,100016.13
2023-01-21T23:16:36.222Z,100016.22
2023-01-21T23:19:03.998Z,100013.31
2023-01-21T23:21:31.565Z,100001.62
2023-01-21T23:23:59.378Z,100007.94
2023-01-21T23:26:27.106Z,100010.72
2023-01-21T23:28:56.128Z,100012.25
2023-01-21T23:31:24.668Z,100010.37
2023-01-21T23:33:55.683Z,100011.38
2023-01-21T23:36:23.316Z,100013.25
2023-01-21T23:38:50.922Z,100009.09
2023-01-21T23:41:19.871Z,100002.19
2023-01-21T23:43:47.363Z,100001.28
2023-01-21T23:46:16.716Z,100001.97
2023-01-21T23:48:44.726Z,99996.47
2023-01-21T23:51:14.089Z,100010.37
2023-01-21T23:53:41.888Z,100004.19
2023-01-21T23:56:12.963Z,100007.16
2023-01-21T23:58:40.563Z,100013.31
